Time;durP1;ratioP1;P1;durP2;ratioP2;P2;SDS_P1;SDS_P2;PMS_P1;PMS_P2;Temp;Humidity;BMP_temperature;BMP_pressure;BME280_temperature;BME280_humidity;BME280_pressure;Samples;Min_cycle;Max_cycle;Signal;HPM_P1;HPM_P2
2023/08/31 00:00:35;;;;;;;2.00;1.80;;;;;;;;;;5044590;28;20141;-59
2023/08/31 00:03:02;;;;;;;5.05;2.03;;;;;;;;;;5053430;28;20511;-60
2023/08/31 00:05:30;;;;;;;2.90;1.90;;;;;;;;;;5052446;28;20057;-60
2023/08/31 00:07:56;;;;;;;3.60;2.00;;;;;;;;;;5044501;28;20180;-57
2023/08/31 00:10:23;;;;;;;6.43;2.00;;;;;;;;;;5040934;28;20117;-59
2023/08/31 00:12:50;;;;;;;4.07;2.65;;;;;;;;;;5036349;28;20145;-57
2023/08/31 00:15:16;;;;;;;5.53;2.78;;;;;;;;;;5044889;28;20057;-60
2023/08/31 00:17:42;;;;;;;4.07;2.38;;;;;;;;;;5040794;28;20053;-60
2023/08/31 00:20:11;;;;;;;5.05;2.50;;;;;;;;;;5036139;28;20570;-58
2023/08/31 00:22:38;;;;;;;4.90;2.67;;;;;;;;;;5038070;28;20050;-59
2023/08/31 00:25:08;;;;;;;5.97;2.78;;;;;;;;;;5033826;28;20147;-58
2023/08/31 00:27:37;;;;;;;7.82;3.17;;;;;;;;;;5041433;28;20046;-58
2023/08/31 00:30:07;;;;;;;5.20;2.65;;;;;;;;;;5026220;28;20057;-54
2023/08/31 00:32:34;;;;;;;5.07;2.50;;;;;;;;;;5044756;28;20053;-59
2023/08/31 00:35:03;;;;;;;7.28;3.08;;;;;;;;;;5041756;28;20067;-59
2023/08/31 00:37:30;;;;;;;5.38;2.92;;;;;;;;;;5030584;28;20049;-57
2023/08/31 00:39:56;;;;;;;12.85;2.92;;;;;;;;;;5033511;28;20113;-54
2023/08/31 00:42:24;;;;;;;3.92;2.85;;;;;;;;;;5028533;28;20080;-59
2023/08/31 00:44:51;;;;;;;5.38;3.00;;;;;;;;;;5043415;28;20065;-60
2023/08/31 00:47:17;;;;;;;9.63;3.75;;;;;;;;;;5046727;28;20115;-58
2023/08/31 00:49:43;;;;;;;4.38;2.63;;;;;;;;;;5048027;28;20085;-58
2023/08/31 00:52:10;;;;;;;4.13;2.80;;;;;;;;;;5037307;28;20111;-60
2023/08/31 00:54:36;;;;;;;5.35;2.95;;;;;;;;;;5043301;28;20061;-59
2023/08/31 00:57:03;;;;;;;4.28;2.88;;;;;;;;;;5035191;28;20474;-55
2023/08/31 00:59:30;;;;;;;5.28;3.20;;;;;;;;;;5051641;28;20057;-56
2023/08/31 01:02:01;;;;;;;5.28;2.80;;;;;;;;;;5024251;28;20062;-56
2023/08/31 01:04:33;;;;;;;10.48;2.95;;;;;;;;;;5025982;28;20493;-57
2023/08/31 01:07:02;;;;;;;3.55;2.72;;;;;;;;;;5027984;28;20078;-55
2023/08/31 01:10:02;;;;;;;7.85;3.05;;;;;;;;;;5038101;28;20057;-59
2023/08/31 01:12:30;;;;;;;5.82;2.95;;;;;;;;;;5038485;28;20061;-59
2023/08/31 01:15:02;;;;;;;7.25;3.13;;;;;;;;;;5037953;28;20104;-58
2023/08/31 01:17:30;;;;;;;4.60;2.95;;;;;;;;;;5045301;28;20053;-60
2023/08/31 01:19:59;;;;;;;5.72;3.10;;;;;;;;;;5047397;28;20053;-59
2023/08/31 01:22:37;;;;;;;6.57;3.70;;;;;;;;;;5040597;28;20110;-58
2023/08/31 01:25:05;;;;;;;6.75;3.22;;;;;;;;;;5037266;28;20514;-58
2023/08/31 01:27:32;;;;;;;6.63;3.13;;;;;;;;;;5065221;28;20049;-60
2023/08/31 01:29:59;;;;;;;3.92;2.53;;;;;;;;;;5041691;28;20066;-59
2023/08/31 01:32:26;;;;;;;8.27;2.78;;;;;;;;;;5042095;28;20049;-59
2023/08/31 01:34:52;;;;;;;8.18;2.92;;;;;;;;;;5043266;28;20052;-55
2023/08/31 01:37:28;;;;;;;6.50;3.05;;;;;;;;;;5025234;28;20057;-59
2023/08/31 01:40:11;;;;;;;4.20;2.47;;;;;;;;;;5024969;28;20105;-56
2023/08/31 01:42:38;;;;;;;3.42;2.63;;;;;;;;;;5040715;28;20144;-56
2023/08/31 01:45:05;;;;;;;5.40;3.08;;;;;;;;;;5042447;28;20582;-56
2023/08/31 01:47:31;;;;;;;5.50;3.67;;;;;;;;;;5023980;28;20084;-59
2023/08/31 01:49:59;;;;;;;7.30;3.97;;;;;;;;;;5028805;28;20149;-60
2023/08/31 01:52:25;;;;;;;6.30;4.10;;;;;;;;;;5047873;28;20059;-59
2023/08/31 01:54:52;;;;;;;5.07;4.57;;;;;;;;;;5064261;28;20100;-59
2023/08/31 01:57:18;;;;;;;3.83;3.42;;;;;;;;;;5064690;28;20145;-60
2023/08/31 01:59:44;;;;;;;7.68;3.65;;;;;;;;;;5059704;28;20052;-55
2023/08/31 02:02:11;;;;;;;4.30;3.70;;;;;;;;;;5024243;28;20093;-60
2023/08/31 02:04:37;;;;;;;5.82;4.38;;;;;;;;;;5036664;28;20057;-55
2023/08/31 02:07:04;;;;;;;5.28;3.92;;;;;;;;;;5027279;28;20081;-60
2023/08/31 02:09:30;;;;;;;5.55;4.50;;;;;;;;;;5041183;28;20496;-60
2023/08/31 02:11:57;;;;;;;5.57;4.07;;;;;;;;;;5027668;28;20054;-58
2023/08/31 02:14:23;;;;;;;6.32;3.70;;;;;;;;;;5024567;28;20054;-59
2023/08/31 02:16:50;;;;;;;6.68;4.13;;;;;;;;;;5034664;28;20512;-60
2023/08/31 02:19:16;;;;;;;6.10;4.47;;;;;;;;;;5037748;28;20050;-59
2023/08/31 02:21:43;;;;;;;4.15;3.75;;;;;;;;;;5024939;28;20062;-56
2023/08/31 02:24:09;;;;;;;4.55;3.83;;;;;;;;;;5024183;28;20082;-60
2023/08/31 02:26:37;;;;;;;5.55;4.05;;;;;;;;;;5029824;28;20127;-59
2023/08/31 02:29:03;;;;;;;5.57;4.00;;;;;;;;;;5041969;28;20053;-52
2023/08/31 02:31:30;;;;;;;5.60;3.78;;;;;;;;;;5043458;28;20065;-58
2023/08/31 02:33:56;;;;;;;5.50;4.32;;;;;;;;;;5051675;28;20068;-57
2023/08/31 02:36:23;;;;;;;5.55;3.70;;;;;;;;;;5043693;28;20694;-59
2023/08/31 02:38:50;;;;;;;6.18;3.60;;;;;;;;;;5024182;28;20057;-59
2023/08/31 02:41:17;;;;;;;6.85;3.38;;;;;;;;;;5034459;28;20057;-55
2023/08/31 02:43:43;;;;;;;3.90;3.58;;;;;;;;;;5024268;28;20053;-59
2023/08/31 02:46:10;;;;;;;5.28;3.78;;;;;;;;;;5022716;28;20133;-60
2023/08/31 02:48:38;;;;;;;6.72;3.97;;;;;;;;;;5042600;28;20053;-59
2023/08/31 02:51:05;;;;;;;7.25;3.70;;;;;;;;;;5040129;28;20056;-57
2023/08/31 02:53:31;;;;;;;5.43;3.72;;;;;;;;;;5044162;28;20053;-60
2023/08/31 02:55:58;;;;;;;7.95;3.40;;;;;;;;;;5028990;28;20112;-59
2023/08/31 02:58:25;;;;;;;6.78;4.20;;;;;;;;;;5024006;28;20054;-55
2023/08/31 03:00:53;;;;;;;8.85;3.83;;;;;;;;;;5038026;28;20471;-60
2023/08/31 03:03:20;;;;;;;5.40;3.75;;;;;;;;;;5033669;28;20050;-60
2023/08/31 03:05:46;;;;;;;7.47;3.95;;;;;;;;;;5023469;28;20555;-60
2023/08/31 03:08:13;;;;;;;7.93;2.92;;;;;;;;;;5023000;28;20093;-59
2023/08/31 03:10:40;;;;;;;7.50;3.80;;;;;;;;;;5035146;28;20060;-59
2023/08/31 03:13:07;;;;;;;4.35;3.03;;;;;;;;;;5042358;28;20049;-58
2023/08/31 03:15:36;;;;;;;6.55;2.90;;;;;;;;;;5043148;28;20058;-56
2023/08/31 03:18:03;;;;;;;6.55;3.10;;;;;;;;;;5054700;28;20045;-60
2023/08/31 03:20:29;;;;;;;4.68;2.38;;;;;;;;;;5029668;28;20049;-59
2023/08/31 03:22:56;;;;;;;3.08;2.20;;;;;;;;;;5023630;28;20056;-55
2023/08/31 03:25:22;;;;;;;3.40;2.20;;;;;;;;;;5023570;28;20104;-60
2023/08/31 03:27:49;;;;;;;6.10;2.55;;;;;;;;;;5024105;28;20058;-59
2023/08/31 03:30:15;;;;;;;3.13;1.70;;;;;;;;;;5034322;28;20191;-58
2023/08/31 03:32:42;;;;;;;4.25;2.13;;;;;;;;;;5035059;28;20050;-60
2023/08/31 03:35:09;;;;;;;3.80;2.00;;;;;;;;;;5037697;28;20084;-60
2023/08/31 03:37:36;;;;;;;5.22;2.50;;;;;;;;;;5042247;28;20084;-58
2023/08/31 03:40:04;;;;;;;5.53;2.53;;;;;;;;;;5042596;28;20476;-59
2023/08/31 03:42:30;;;;;;;3.25;1.98;;;;;;;;;;5044952;28;20493;-59
2023/08/31 03:44:57;;;;;;;3.20;2.10;;;;;;;;;;5044066;28;20140;-58
2023/08/31 03:47:24;;;;;;;2.55;2.28;;;;;;;;;;5043288;28;20057;-56
2023/08/31 03:49:50;;;;;;;3.60;2.30;;;;;;;;;;5038293;28;20061;-61
2023/08/31 03:52:17;;;;;;;3.58;2.25;;;;;;;;;;5041111;28;20069;-57
2023/08/31 03:54:43;;;;;;;4.32;1.95;;;;;;;;;;5045488;28;20104;-57
2023/08/31 03:57:09;;;;;;;5.68;2.00;;;;;;;;;;5043488;28;20062;-60
2023/08/31 03:59:36;;;;;;;3.10;1.50;;;;;;;;;;5042748;28;20145;-59
2023/08/31 04:02:03;;;;;;;2.08;1.50;;;;;;;;;;5050461;28;20569;-59
2023/08/31 04:04:30;;;;;;;2.53;1.30;;;;;;;;;;5061634;28;20066;-58
2023/08/31 04:06:57;;;;;;;3.25;2.00;;;;;;;;;;5043712;28;20140;-58
2023/08/31 04:09:23;;;;;;;5.22;1.90;;;;;;;;;;5057531;28;20421;-58
2023/08/31 04:11:49;;;;;;;4.68;2.20;;;;;;;;;;5041765;28;20552;-59
2023/08/31 04:14:18;;;;;;;4.95;2.10;;;;;;;;;;5040587;28;20054;-57
2023/08/31 04:16:47;;;;;;;5.10;1.85;;;;;;;;;;5042903;28;20123;-58
2023/08/31 04:19:13;;;;;;;5.40;2.10;;;;;;;;;;5044914;28;20123;-60
2023/08/31 04:21:39;;;;;;;5.45;2.13;;;;;;;;;;5033770;28;20054;-59
2023/08/31 04:24:06;;;;;;;3.92;2.35;;;;;;;;;;5060495;28;20085;-58
2023/08/31 04:26:32;;;;;;;5.22;2.75;;;;;;;;;;5047091;28;20124;-59
2023/08/31 04:28:59;;;;;;;4.55;2.50;;;;;;;;;;5045993;28;20537;-60
2023/08/31 04:31:25;;;;;;;2.53;2.33;;;;;;;;;;5046076;28;20507;-59
2023/08/31 04:33:53;;;;;;;4.43;2.50;;;;;;;;;;5040644;28;20066;-60
2023/08/31 04:36:20;;;;;;;6.22;2.70;;;;;;;;;;5026487;28;20054;-57
2023/08/31 04:38:48;;;;;;;3.20;2.50;;;;;;;;;;5049703;28;20050;-56
2023/08/31 04:41:15;;;;;;;5.78;2.95;;;;;;;;;;5044346;28;20064;-58
2023/08/31 04:43:41;;;;;;;3.20;2.80;;;;;;;;;;5035400;28;20062;-58
2023/08/31 04:46:08;;;;;;;8.85;4.05;;;;;;;;;;5025883;28;20054;-59
2023/08/31 04:48:34;;;;;;;4.43;3.20;;;;;;;;;;5025674;28;20089;-56
2023/08/31 04:51:01;;;;;;;7.07;3.53;;;;;;;;;;5037018;28;20103;-60
2023/08/31 04:53:27;;;;;;;7.15;4.18;;;;;;;;;;5034991;28;20086;-60
2023/08/31 04:55:53;;;;;;;4.78;2.83;;;;;;;;;;5026114;28;20077;-57
2023/08/31 04:58:20;;;;;;;4.85;2.83;;;;;;;;;;5024235;28;20528;-60
2023/08/31 05:00:47;;;;;;;5.07;2.10;;;;;;;;;;5027173;28;20133;-57
2023/08/31 05:03:14;;;;;;;5.03;2.45;;;;;;;;;;5042149;28;20060;-59
2023/08/31 05:05:43;;;;;;;4.93;2.97;;;;;;;;;;5027427;28;20441;-60
2023/08/31 05:08:10;;;;;;;8.15;3.03;;;;;;;;;;5033292;28;20582;-59
2023/08/31 05:10:36;;;;;;;5.10;2.42;;;;;;;;;;5030783;28;20061;-59
2023/08/31 05:13:04;;;;;;;4.72;3.25;;;;;;;;;;5045688;28;20360;-53
2023/08/31 05:15:30;;;;;;;7.40;2.78;;;;;;;;;;5045288;28;20061;-59
2023/08/31 05:17:57;;;;;;;7.25;2.50;;;;;;;;;;5028627;28;21035;-58
2023/08/31 05:20:24;;;;;;;7.07;2.78;;;;;;;;;;5024819;28;20112;-58
2023/08/31 05:22:50;;;;;;;4.30;2.40;;;;;;;;;;5030286;28;20863;-59
2023/08/31 05:25:17;;;;;;;8.07;2.78;;;;;;;;;;5044752;28;20136;-60
2023/08/31 05:27:43;;;;;;;4.53;2.33;;;;;;;;;;5046193;28;20059;-58
2023/08/31 05:30:10;;;;;;;7.50;2.50;;;;;;;;;;5043766;28;20057;-60
2023/08/31 05:32:36;;;;;;;3.42;1.80;;;;;;;;;;5036433;28;20508;-59
2023/08/31 05:35:03;;;;;;;6.25;2.60;;;;;;;;;;5044653;28;20498;-58
2023/08/31 05:37:34;;;;;;;4.25;2.38;;;;;;;;;;5028062;28;20063;-60
2023/08/31 05:40:01;;;;;;;7.97;3.00;;;;;;;;;;5040994;28;20563;-60
2023/08/31 05:42:27;;;;;;;9.23;2.53;;;;;;;;;;5040029;28;20058;-54
2023/08/31 05:44:53;;;;;;;5.20;2.22;;;;;;;;;;5031375;28;20535;-60
2023/08/31 05:47:20;;;;;;;4.93;2.08;;;;;;;;;;5043825;28;20057;-60
2023/08/31 05:49:46;;;;;;;5.80;2.08;;;;;;;;;;5043937;28;20141;-56
2023/08/31 05:52:13;;;;;;;5.57;2.03;;;;;;;;;;5047156;28;20124;-60
2023/08/31 05:54:39;;;;;;;5.53;2.20;;;;;;;;;;5035750;28;20057;-59
2023/08/31 05:57:06;;;;;;;3.42;2.10;;;;;;;;;;5031720;28;20049;-58
2023/08/31 05:59:32;;;;;;;8.05;2.47;;;;;;;;;;5038756;28;20513;-60
2023/08/31 06:01:58;;;;;;;5.53;2.25;;;;;;;;;;5027756;28;20058;-60
2023/08/31 06:04:25;;;;;;;6.68;2.50;;;;;;;;;;5033912;28;20085;-58
2023/08/31 06:06:53;;;;;;;7.00;2.60;;;;;;;;;;5025657;28;20064;-60
2023/08/31 06:09:20;;;;;;;6.82;2.67;;;;;;;;;;5024138;28;20065;-59
2023/08/31 06:11:47;;;;;;;5.03;2.70;;;;;;;;;;5039206;28;20054;-56
2023/08/31 06:14:13;;;;;;;6.47;2.35;;;;;;;;;;5043240;28;20060;-60
2023/08/31 06:16:40;;;;;;;4.80;2.38;;;;;;;;;;5043664;28;20524;-58
2023/08/31 06:19:06;;;;;;;6.57;1.88;;;;;;;;;;5041877;28;20061;-56
2023/08/31 06:21:32;;;;;;;4.70;2.17;;;;;;;;;;5027396;28;20144;-60
2023/08/31 06:23:59;;;;;;;4.75;1.80;;;;;;;;;;5024409;28;20061;-59
2023/08/31 06:26:25;;;;;;;4.68;2.17;;;;;;;;;;5024285;28;20057;-56
2023/08/31 06:28:51;;;;;;;6.30;2.20;;;;;;;;;;5033780;28;20052;-60
2023/08/31 06:31:19;;;;;;;4.75;2.00;;;;;;;;;;5047443;28;20136;-57
2023/08/31 06:33:45;;;;;;;7.18;2.45;;;;;;;;;;5030722;28;20064;-59
2023/08/31 06:36:12;;;;;;;8.75;3.13;;;;;;;;;;5025699;28;20497;-57
2023/08/31 06:38:38;;;;;;;4.85;2.78;;;;;;;;;;5034062;28;20136;-60
2023/08/31 06:41:05;;;;;;;5.28;3.00;;;;;;;;;;5042315;28;20145;-58
2023/08/31 06:43:32;;;;;;;7.10;3.08;;;;;;;;;;5040069;28;20053;-60
2023/08/31 06:45:58;;;;;;;5.45;2.95;;;;;;;;;;5043184;28;20085;-56
2023/08/31 06:48:43;;;;;;;5.95;2.20;;;;;;;;;;5040797;28;20512;-59
2023/08/31 06:51:09;;;;;;;11.40;2.70;;;;;;;;;;5032361;28;20073;-59
2023/08/31 06:53:37;;;;;;;5.07;2.05;;;;;;;;;;5041819;28;20575;-59
2023/08/31 06:56:03;;;;;;;6.07;2.83;;;;;;;;;;5041920;28;20099;-57
2023/08/31 06:58:30;;;;;;;2.92;1.80;;;;;;;;;;5042908;28;20048;-53
2023/08/31 07:00:57;;;;;;;5.32;1.50;;;;;;;;;;5040760;28;20073;-59
2023/08/31 07:03:23;;;;;;;8.52;1.75;;;;;;;;;;5041433;28;20049;-59
2023/08/31 07:05:52;;;;;;;4.20;1.35;;;;;;;;;;5023930;28;20062;-57
2023/08/31 07:08:19;;;;;;;4.55;1.60;;;;;;;;;;5047910;28;20318;-61
2023/08/31 07:10:47;;;;;;;5.53;1.65;;;;;;;;;;5044196;28;20558;-62
2023/08/31 07:13:13;;;;;;;3.75;1.30;;;;;;;;;;5043009;28;20064;-59
2023/08/31 07:15:40;;;;;;;2.53;1.13;;;;;;;;;;5038878;28;20057;-59
2023/08/31 07:18:07;;;;;;;3.70;1.35;;;;;;;;;;5041920;28;20119;-59
2023/08/31 07:20:34;;;;;;;3.58;1.30;;;;;;;;;;5041555;28;20540;-56
2023/08/31 07:23:00;;;;;;;3.90;1.83;;;;;;;;;;5058208;28;20057;-60
2023/08/31 07:25:28;;;;;;;6.57;2.33;;;;;;;;;;5037883;28;20141;-59
2023/08/31 07:27:54;;;;;;;5.32;1.95;;;;;;;;;;5028643;28;20056;-59
2023/08/31 07:30:21;;;;;;;5.55;1.88;;;;;;;;;;5045550;28;20056;-59
2023/08/31 07:32:47;;;;;;;6.35;2.33;;;;;;;;;;5042251;28;20112;-59
2023/08/31 07:35:14;;;;;;;8.82;2.20;;;;;;;;;;5043274;28;20053;-60
2023/08/31 07:37:41;;;;;;;5.30;2.15;;;;;;;;;;5022548;28;20116;-59
2023/08/31 07:40:09;;;;;;;11.98;2.92;;;;;;;;;;5050834;28;20053;-59
2023/08/31 07:42:36;;;;;;;8.38;2.60;;;;;;;;;;5043372;28;20057;-59
2023/08/31 07:45:05;;;;;;;8.43;2.70;;;;;;;;;;5040328;28;20077;-59
2023/08/31 07:47:31;;;;;;;4.03;2.70;;;;;;;;;;5023764;28;20156;-59
2023/08/31 07:49:58;;;;;;;8.20;3.05;;;;;;;;;;5039456;28;20057;-57
2023/08/31 07:52:25;;;;;;;8.07;2.95;;;;;;;;;;5039588;28;20052;-59
2023/08/31 07:54:51;;;;;;;8.63;2.70;;;;;;;;;;5044534;28;20080;-59
2023/08/31 07:57:18;;;;;;;4.60;2.38;;;;;;;;;;5039872;28;20586;-60
2023/08/31 07:59:44;;;;;;;9.18;2.55;;;;;;;;;;5026914;28;20232;-57
2023/08/31 08:02:11;;;;;;;7.22;2.92;;;;;;;;;;5027762;28;20058;-55
2023/08/31 08:04:37;;;;;;;5.75;2.50;;;;;;;;;;5026337;28;20069;-60
2023/08/31 08:07:03;;;;;;;12.50;4.43;;;;;;;;;;5031860;28;20484;-57
2023/08/31 08:09:30;;;;;;;5.35;2.95;;;;;;;;;;5046808;28;20050;-58
2023/08/31 08:11:57;;;;;;;7.75;2.45;;;;;;;;;;5042462;28;20149;-60
2023/08/31 08:14:23;;;;;;;7.45;2.88;;;;;;;;;;5059611;28;20045;-57
2023/08/31 08:16:50;;;;;;;4.05;2.30;;;;;;;;;;5057252;28;20441;-58
2023/08/31 08:19:21;;;;;;;7.85;3.20;;;;;;;;;;5046763;28;20162;-54
2023/08/31 08:21:47;;;;;;;5.35;2.38;;;;;;;;;;5050718;28;20548;-57
2023/08/31 08:24:13;;;;;;;5.88;2.25;;;;;;;;;;5042200;28;20546;-60
2023/08/31 08:26:40;;;;;;;6.00;2.65;;;;;;;;;;5045973;28;20463;-60
2023/08/31 08:29:06;;;;;;;6.65;3.63;;;;;;;;;;5057473;28;20510;-60
2023/08/31 08:31:33;;;;;;;7.82;3.25;;;;;;;;;;5053157;28;20492;-60
2023/08/31 08:34:01;;;;;;;5.55;3.40;;;;;;;;;;5040215;28;20058;-60
2023/08/31 08:36:27;;;;;;;7.07;3.50;;;;;;;;;;5036926;28;20112;-60
2023/08/31 08:38:53;;;;;;;8.45;3.72;;;;;;;;;;5044538;28;20485;-60
2023/08/31 08:41:24;;;;;;;5.93;3.80;;;;;;;;;;5049081;28;20531;-57
2023/08/31 08:43:50;;;;;;;7.90;3.67;;;;;;;;;;5055310;28;20132;-60
2023/08/31 08:46:17;;;;;;;9.52;4.30;;;;;;;;;;5048615;28;20083;-60
2023/08/31 08:48:45;;;;;;;6.53;3.65;;;;;;;;;;5047017;28;20132;-60
2023/08/31 08:51:12;;;;;;;10.30;3.38;;;;;;;;;;5042657;28;20073;-60
2023/08/31 08:53:42;;;;;;;7.20;3.33;;;;;;;;;;5040624;28;20140;-60
2023/08/31 08:56:08;;;;;;;9.38;3.83;;;;;;;;;;5064271;28;20089;-60
2023/08/31 08:58:35;;;;;;;5.72;3.38;;;;;;;;;;5040946;28;20061;-54
2023/08/31 09:01:02;;;;;;;12.18;3.53;;;;;;;;;;5049219;28;20132;-61
2023/08/31 09:03:29;;;;;;;8.75;3.30;;;;;;;;;;5048810;28;20111;-60
2023/08/31 09:05:55;;;;;;;14.00;3.53;;;;;;;;;;5044907;28;20071;-60
2023/08/31 09:08:26;;;;;;;5.25;3.30;;;;;;;;;;5047052;28;20107;-60
2023/08/31 09:10:54;;;;;;;8.15;2.80;;;;;;;;;;5040548;28;20054;-60
2023/08/31 09:13:25;;;;;;;8.52;2.90;;;;;;;;;;5042001;28;20053;-60
2023/08/31 09:15:52;;;;;;;7.68;2.90;;;;;;;;;;5044557;28;20057;-60
2023/08/31 09:18:23;;;;;;;5.22;2.55;;;;;;;;;;5058268;28;20060;-60
2023/08/31 09:20:50;;;;;;;7.78;2.58;;;;;;;;;;5044909;28;20057;-60
2023/08/31 09:23:16;;;;;;;3.67;1.70;;;;;;;;;;5050497;28;20056;-60
2023/08/31 09:25:48;;;;;;;8.02;2.03;;;;;;;;;;5044686;28;20064;-59
2023/08/31 09:28:19;;;;;;;8.02;2.53;;;;;;;;;;5042140;28;20056;-59
2023/08/31 09:30:49;;;;;;;6.75;2.65;;;;;;;;;;5050194;28;20045;-61
2023/08/31 09:33:16;;;;;;;5.03;1.50;;;;;;;;;;5035986;28;20079;-60
2023/08/31 09:35:53;;;;;;;7.38;1.60;;;;;;;;;;5036451;28;20069;-61
2023/08/31 09:38:20;;;;;;;4.55;1.35;;;;;;;;;;5048929;28;20515;-59
2023/08/31 09:40:46;;;;;;;5.38;1.50;;;;;;;;;;5058313;28;20108;-59
2023/08/31 09:43:25;;;;;;;4.25;1.42;;;;;;;;;;5043727;28;20139;-58
2023/08/31 09:45:52;;;;;;;3.03;1.52;;;;;;;;;;5060568;28;20526;-57
2023/08/31 09:48:19;;;;;;;7.05;1.80;;;;;;;;;;5047768;28;20053;-59
2023/08/31 09:50:46;;;;;;;5.13;1.35;;;;;;;;;;5037227;28;20536;-59
2023/08/31 09:53:14;;;;;;;4.82;1.58;;;;;;;;;;5035448;28;20137;-59
2023/08/31 09:55:41;;;;;;;10.98;1.50;;;;;;;;;;5045778;28;20053;-58
2023/08/31 09:58:08;;;;;;;7.15;1.73;;;;;;;;;;5043980;28;20059;-59
2023/08/31 10:00:42;;;;;;;5.18;1.20;;;;;;;;;;5044233;28;20064;-55
2023/08/31 10:03:08;;;;;;;2.45;0.98;;;;;;;;;;5045564;28;20526;-55
2023/08/31 10:05:35;;;;;;;6.70;1.40;;;;;;;;;;5051972;28;20127;-55
2023/08/31 10:08:02;;;;;;;4.03;1.52;;;;;;;;;;5036685;28;20064;-58
2023/08/31 10:10:30;;;;;;;3.25;1.15;;;;;;;;;;5024468;28;20133;-57
2023/08/31 10:12:58;;;;;;;3.30;1.27;;;;;;;;;;5041922;28;20053;-55
2023/08/31 10:15:26;;;;;;;4.82;1.10;;;;;;;;;;5042747;28;20061;-60
2023/08/31 10:17:53;;;;;;;5.43;2.00;;;;;;;;;;5036019;28;20120;-60
2023/08/31 10:20:19;;;;;;;4.03;1.30;;;;;;;;;;5032586;28;20108;-60
2023/08/31 10:22:46;;;;;;;9.02;1.88;;;;;;;;;;5032831;28;20132;-57
2023/08/31 10:25:12;;;;;;;6.03;1.58;;;;;;;;;;5033265;28;20475;-56
2023/08/31 10:27:39;;;;;;;5.15;0.98;;;;;;;;;;5044134;28;20104;-60
2023/08/31 10:30:21;;;;;;;4.82;1.23;;;;;;;;;;5030091;28;20073;-59
2023/08/31 10:33:07;;;;;;;3.33;1.15;;;;;;;;;;5023329;28;20445;-60
2023/08/31 10:35:53;;;;;;;2.53;1.20;;;;;;;;;;5029008;28;20493;-59
2023/08/31 10:38:28;;;;;;;2.92;0.60;;;;;;;;;;5041913;28;20145;-59
2023/08/31 10:41:07;;;;;;;6.70;0.98;;;;;;;;;;5043341;28;20637;-60
2023/08/31 10:43:43;;;;;;;4.10;1.15;;;;;;;;;;5043899;28;20494;-58
2023/08/31 10:46:31;;;;;;;4.72;0.95;;;;;;;;;;5026475;28;20054;-60
2023/08/31 10:49:14;;;;;;;4.00;1.10;;;;;;;;;;5035862;28;20053;-60
2023/08/31 10:51:41;;;;;;;1.27;0.68;;;;;;;;;;5043094;28;20065;-60
2023/08/31 10:54:09;;;;;;;5.50;1.08;;;;;;;;;;5041615;28;20112;-60
2023/08/31 10:56:51;;;;;;;1.42;0.70;;;;;;;;;;5043039;28;20530;-60
2023/08/31 10:59:19;;;;;;;2.65;0.73;;;;;;;;;;5048082;28;20152;-59
2023/08/31 11:01:55;;;;;;;5.65;1.08;;;;;;;;;;5038138;28;20136;-58
2023/08/31 11:04:22;;;;;;;1.02;0.50;;;;;;;;;;5041971;28;20058;-61
2023/08/31 11:06:50;;;;;;;3.63;1.05;;;;;;;;;;5062182;28;20967;-59
2023/08/31 11:09:20;;;;;;;5.38;1.00;;;;;;;;;;5036860;28;20050;-60
2023/08/31 11:11:48;;;;;;;2.30;0.70;;;;;;;;;;5041793;28;20508;-60
2023/08/31 11:14:16;;;;;;;3.83;0.93;;;;;;;;;;5033411;28;20203;-59
2023/08/31 11:16:43;;;;;;;3.25;1.00;;;;;;;;;;5029020;28;20060;-59
2023/08/31 11:19:09;;;;;;;1.83;0.70;;;;;;;;;;5037665;28;20060;-58
2023/08/31 11:21:37;;;;;;;3.25;0.95;;;;;;;;;;5046327;28;20049;-58
2023/08/31 11:24:04;;;;;;;2.40;0.80;;;;;;;;;;5043046;28;20056;-58
2023/08/31 11:26:32;;;;;;;3.30;0.80;;;;;;;;;;5038837;28;20058;-61
2023/08/31 11:28:58;;;;;;;2.45;1.02;;;;;;;;;;5044113;28;20532;-60
2023/08/31 11:31:24;;;;;;;1.98;0.52;;;;;;;;;;5030352;28;20056;-59
2023/08/31 11:33:51;;;;;;;3.92;0.93;;;;;;;;;;5048755;28;20057;-59
2023/08/31 11:36:17;;;;;;;1.70;0.85;;;;;;;;;;5041577;28;20574;-58
2023/08/31 11:38:44;;;;;;;2.22;0.80;;;;;;;;;;5029932;28;20057;-61
2023/08/31 11:41:11;;;;;;;2.33;0.80;;;;;;;;;;5037094;28;20515;-59
2023/08/31 11:43:38;;;;;;;3.47;0.88;;;;;;;;;;5050338;28;20512;-60
2023/08/31 11:46:04;;;;;;;1.00;0.80;;;;;;;;;;5049668;28;20634;-60
2023/08/31 11:48:32;;;;;;;2.70;0.75;;;;;;;;;;5046241;28;20133;-57
2023/08/31 11:50:59;;;;;;;2.78;1.02;;;;;;;;;;5048404;28;20574;-60
2023/08/31 11:53:26;;;;;;;4.47;0.80;;;;;;;;;;5036649;28;20123;-60
2023/08/31 11:55:53;;;;;;;3.40;1.00;;;;;;;;;;5045715;28;20057;-60
2023/08/31 11:58:20;;;;;;;6.40;1.00;;;;;;;;;;5042544;28;20880;-60
2023/08/31 12:00:59;;;;;;;1.15;0.57;;;;;;;;;;5050478;28;20514;-59
2023/08/31 12:03:26;;;;;;;1.73;1.00;;;;;;;;;;5049478;28;20923;-60
2023/08/31 12:06:18;;;;;;;2.05;0.60;;;;;;;;;;5036788;28;20104;-60
2023/08/31 12:08:44;;;;;;;0.65;0.55;;;;;;;;;;5039364;28;20568;-57
2023/08/31 12:11:11;;;;;;;2.92;1.08;;;;;;;;;;5038782;28;20574;-60
2023/08/31 12:13:37;;;;;;;3.42;0.80;;;;;;;;;;5046020;28;20053;-60
2023/08/31 12:16:10;;;;;;;3.72;0.85;;;;;;;;;;5049996;28;20115;-58
2023/08/31 12:18:37;;;;;;;1.15;0.80;;;;;;;;;;5041733;28;20141;-58
2023/08/31 12:21:04;;;;;;;1.20;0.60;;;;;;;;;;5034971;28;20053;-58
2023/08/31 12:23:30;;;;;;;2.80;0.93;;;;;;;;;;5042596;28;20231;-60
2023/08/31 12:25:57;;;;;;;2.92;0.90;;;;;;;;;;5033041;28;20082;-59
2023/08/31 12:28:24;;;;;;;2.67;1.38;;;;;;;;;;5043744;28;20498;-56
2023/08/31 12:30:52;;;;;;;5.03;0.82;;;;;;;;;;5039242;28;20056;-58
2023/08/31 12:33:18;;;;;;;5.82;1.30;;;;;;;;;;5036778;28;20061;-59
2023/08/31 12:35:46;;;;;;;1.08;0.60;;;;;;;;;;5041528;28;20054;-58
2023/08/31 12:38:12;;;;;;;3.58;0.80;;;;;;;;;;5033639;28;20143;-60
2023/08/31 12:40:41;;;;;;;4.90;0.82;;;;;;;;;;5030710;28;20107;-60
2023/08/31 12:43:09;;;;;;;2.50;0.85;;;;;;;;;;5043509;28;20108;-59
2023/08/31 12:45:36;;;;;;;3.83;1.58;;;;;;;;;;5054232;28;20099;-59
2023/08/31 12:48:04;;;;;;;3.60;1.50;;;;;;;;;;5054507;28;20061;-60
2023/08/31 12:50:30;;;;;;;3.20;0.80;;;;;;;;;;5045482;28;20607;-60
2023/08/31 12:52:57;;;;;;;2.72;1.08;;;;;;;;;;5045199;28;20057;-59
2023/08/31 12:55:23;;;;;;;1.80;0.60;;;;;;;;;;5045490;28;20131;-60
2023/08/31 12:57:50;;;;;;;5.43;1.17;;;;;;;;;;5045814;28;20128;-60
2023/08/31 13:00:17;;;;;;;1.95;0.90;;;;;;;;;;5046539;28;20097;-60
2023/08/31 13:02:44;;;;;;;3.08;1.00;;;;;;;;;;5030741;28;20140;-57
2023/08/31 13:05:11;;;;;;;2.40;0.80;;;;;;;;;;5024369;28;20580;-59
2023/08/31 13:07:38;;;;;;;4.82;1.15;;;;;;;;;;5025432;28;20508;-60
2023/08/31 13:10:05;;;;;;;4.63;0.80;;;;;;;;;;5026402;28;20068;-56
2023/08/31 13:12:32;;;;;;;0.90;0.73;;;;;;;;;;5025814;28;20061;-59
2023/08/31 13:14:59;;;;;;;1.70;0.80;;;;;;;;;;5041162;28;20076;-58
2023/08/31 13:17:26;;;;;;;2.60;0.90;;;;;;;;;;5033140;28;20536;-58
2023/08/31 13:19:53;;;;;;;3.30;0.82;;;;;;;;;;5025980;28;20050;-59
2023/08/31 13:22:20;;;;;;;2.58;0.85;;;;;;;;;;5042934;28;20105;-58
2023/08/31 13:24:47;;;;;;;1.55;0.82;;;;;;;;;;5055128;28;20054;-56
2023/08/31 13:27:13;;;;;;;2.60;0.90;;;;;;;;;;5045015;28;20061;-61
2023/08/31 13:29:40;;;;;;;2.03;1.05;;;;;;;;;;5043775;28;20057;-59
2023/08/31 13:32:07;;;;;;;5.72;0.70;;;;;;;;;;5041431;28;20045;-60
2023/08/31 13:34:34;;;;;;;1.42;0.70;;;;;;;;;;5038967;28;20053;-54
2023/08/31 13:37:01;;;;;;;4.32;0.98;;;;;;;;;;5039446;28;20104;-60
2023/08/31 13:39:31;;;;;;;2.95;0.63;;;;;;;;;;5029450;28;20058;-60
2023/08/31 13:41:57;;;;;;;3.53;1.27;;;;;;;;;;5028892;28;20057;-59
2023/08/31 13:44:23;;;;;;;3.63;0.90;;;;;;;;;;5051677;28;20080;-56
2023/08/31 13:46:50;;;;;;;5.38;0.60;;;;;;;;;;5037719;28;20111;-59
2023/08/31 13:49:16;;;;;;;1.35;0.77;;;;;;;;;;5035880;28;22328;-61
2023/08/31 13:51:42;;;;;;;2.30;0.90;;;;;;;;;;5040639;28;20547;-59
2023/08/31 13:54:09;;;;;;;2.78;0.75;;;;;;;;;;5038469;28;20060;-61
2023/08/31 13:56:35;;;;;;;2.10;0.98;;;;;;;;;;5040404;28;20073;-59
2023/08/31 13:59:02;;;;;;;2.22;0.90;;;;;;;;;;5038726;28;20049;-60
2023/08/31 14:01:29;;;;;;;3.38;1.02;;;;;;;;;;5034111;28;21006;-59
2023/08/31 14:03:56;;;;;;;2.25;0.70;;;;;;;;;;5040154;28;20134;-58
2023/08/31 14:06:23;;;;;;;3.95;1.10;;;;;;;;;;5029750;28;20521;-60
2023/08/31 14:08:49;;;;;;;2.40;0.75;;;;;;;;;;5032246;28;20480;-60
2023/08/31 14:11:16;;;;;;;3.83;0.60;;;;;;;;;;5038302;28;20120;-59
2023/08/31 14:13:46;;;;;;;2.95;0.80;;;;;;;;;;5040368;28;20140;-61
2023/08/31 14:16:12;;;;;;;2.53;1.00;;;;;;;;;;5047683;28;20100;-61
2023/08/31 14:18:39;;;;;;;1.73;0.70;;;;;;;;;;5037876;28;20053;-58
2023/08/31 14:21:06;;;;;;;2.03;0.85;;;;;;;;;;5035918;28;20060;-59
2023/08/31 14:23:33;;;;;;;5.70;1.02;;;;;;;;;;5037171;28;20627;-58
2023/08/31 14:26:00;;;;;;;4.25;1.10;;;;;;;;;;5039996;28;20549;-60
2023/08/31 14:28:27;;;;;;;3.67;0.82;;;;;;;;;;5029636;28;20055;-60
2023/08/31 14:30:53;;;;;;;1.25;0.80;;;;;;;;;;5031100;28;20844;-55
2023/08/31 14:33:20;;;;;;;3.35;0.93;;;;;;;;;;5031890;28;20430;-58
2023/08/31 14:35:49;;;;;;;2.53;0.93;;;;;;;;;;5040027;28;20061;-59
2023/08/31 14:38:20;;;;;;;2.25;0.90;;;;;;;;;;5037868;28;20060;-59
2023/08/31 14:40:46;;;;;;;2.42;0.90;;;;;;;;;;5032384;28;20166;-60
2023/08/31 14:43:14;;;;;;;1.88;0.80;;;;;;;;;;5038394;28;20049;-57
2023/08/31 14:45:40;;;;;;;2.47;0.70;;;;;;;;;;5038710;28;20594;-59